sensor_id;sensor_type;location;lat;lon;timestamp;temperature;humidity
55213;DHT22;41083;52.932;6.674;2023-04-07T00:01:24;7.50;99.90
55213;DHT22;41083;52.932;6.674;2023-04-07T00:03:50;7.40;99.90
55213;DHT22;41083;52.932;6.674;2023-04-07T00:06:16;7.50;99.90
55213;DHT22;41083;52.932;6.674;2023-04-07T00:08:41;7.50;99.90
55213;DHT22;41083;52.932;6.674;2023-04-07T00:11:07;7.50;99.90
55213;DHT22;41083;52.932;6.674;2023-04-07T00:13:33;7.50;99.90
55213;DHT22;41083;52.932;6.674;2023-04-07T00:15:58;7.40;99.90
55213;DHT22;41083;52.932;6.674;2023-04-07T00:18:24;7.40;99.90
55213;DHT22;41083;52.932;6.674;2023-04-07T00:20:50;7.40;99.90
55213;DHT22;41083;52.932;6.674;2023-04-07T00:23:15;7.50;99.90
55213;DHT22;41083;52.932;6.674;2023-04-07T00:25:41;7.50;99.90
55213;DHT22;41083;52.932;6.674;2023-04-07T00:28:06;7.50;99.90
55213;DHT22;41083;52.932;6.674;2023-04-07T00:30:32;7.50;99.90
55213;DHT22;41083;52.932;6.674;2023-04-07T00:32:57;7.50;99.90
55213;DHT22;41083;52.932;6.674;2023-04-07T00:35:23;7.50;99.90
55213;DHT22;41083;52.932;6.674;2023-04-07T00:37:49;7.50;99.90
55213;DHT22;41083;52.932;6.674;2023-04-07T00:40:14;7.50;99.90
55213;DHT22;41083;52.932;6.674;2023-04-07T00:42:41;7.40;99.90
55213;DHT22;41083;52.932;6.674;2023-04-07T00:45:07;7.50;99.90
55213;DHT22;41083;52.932;6.674;2023-04-07T00:47:34;7.40;99.90
55213;DHT22;41083;52.932;6.674;2023-04-07T00:50:05;7.50;99.90
55213;DHT22;41083;52.932;6.674;2023-04-07T00:52:32;7.40;99.90
55213;DHT22;41083;52.932;6.674;2023-04-07T00:54:59;7.40;99.90
55213;DHT22;41083;52.932;6.674;2023-04-07T00:57:24;7.50;99.90
55213;DHT22;41083;52.932;6.674;2023-04-07T00:59:51;7.50;99.90
55213;DHT22;41083;52.932;6.674;2023-04-07T01:04:58;7.50;99.90
55213;DHT22;41083;52.932;6.674;2023-04-07T01:10:34;7.40;99.90
55213;DHT22;41083;52.932;6.674;2023-04-07T01:13:11;7.50;99.90
55213;DHT22;41083;52.932;6.674;2023-04-07T01:15:38;7.40;99.90
55213;DHT22;41083;52.932;6.674;2023-04-07T01:18:09;7.50;99.90
55213;DHT22;41083;52.932;6.674;2023-04-07T01:20:37;7.50;99.90
55213;DHT22;41083;52.932;6.674;2023-04-07T01:23:05;7.40;99.90
55213;DHT22;41083;52.932;6.674;2023-04-07T01:25:49;7.50;99.90
55213;DHT22;41083;52.932;6.674;2023-04-07T01:28:30;7.40;99.90
55213;DHT22;41083;52.932;6.674;2023-04-07T01:30:59;7.40;99.90
55213;DHT22;41083;52.932;6.674;2023-04-07T01:33:27;7.40;99.90
55213;DHT22;41083;52.932;6.674;2023-04-07T01:35:58;7.40;99.90
55213;DHT22;41083;52.932;6.674;2023-04-07T01:38:24;7.40;99.90
55213;DHT22;41083;52.932;6.674;2023-04-07T01:40:51;7.40;99.90
55213;DHT22;41083;52.932;6.674;2023-04-07T01:43:17;7.50;99.90
55213;DHT22;41083;52.932;6.674;2023-04-07T01:45:44;7.40;99.90
55213;DHT22;41083;52.932;6.674;2023-04-07T01:48:11;7.40;99.90
55213;DHT22;41083;52.932;6.674;2023-04-07T01:50:37;7.50;99.90
55213;DHT22;41083;52.932;6.674;2023-04-07T01:53:04;7.40;99.90
55213;DHT22;41083;52.932;6.674;2023-04-07T01:55:30;7.50;99.90
55213;DHT22;41083;52.932;6.674;2023-04-07T01:57:56;7.40;99.90
55213;DHT22;41083;52.932;6.674;2023-04-07T02:00:22;7.40;99.90
55213;DHT22;41083;52.932;6.674;2023-04-07T02:02:49;7.40;99.90
55213;DHT22;41083;52.932;6.674;2023-04-07T02:05:18;7.40;99.90
55213;DHT22;41083;52.932;6.674;2023-04-07T02:07:51;7.40;99.90
55213;DHT22;41083;52.932;6.674;2023-04-07T02:10:21;7.30;99.90
55213;DHT22;41083;52.932;6.674;2023-04-07T02:12:48;7.40;99.90
55213;DHT22;41083;52.932;6.674;2023-04-07T02:15:14;7.50;99.90
55213;DHT22;41083;52.932;6.674;2023-04-07T02:17:43;7.50;99.90
55213;DHT22;41083;52.932;6.674;2023-04-07T02:20:11;7.50;99.90
55213;DHT22;41083;52.932;6.674;2023-04-07T02:22:38;7.50;99.90
55213;DHT22;41083;52.932;6.674;2023-04-07T02:25:25;7.40;99.90
55213;DHT22;41083;52.932;6.674;2023-04-07T02:27:51;7.40;99.90
55213;DHT22;41083;52.932;6.674;2023-04-07T02:30:17;7.50;99.90
55213;DHT22;41083;52.932;6.674;2023-04-07T02:32:43;7.40;99.90
55213;DHT22;41083;52.932;6.674;2023-04-07T02:35:09;7.40;99.90
55213;DHT22;41083;52.932;6.674;2023-04-07T02:37:35;7.40;99.90
55213;DHT22;41083;52.932;6.674;2023-04-07T02:40:02;7.50;99.90
55213;DHT22;41083;52.932;6.674;2023-04-07T02:42:28;7.50;99.90
55213;DHT22;41083;52.932;6.674;2023-04-07T02:44:53;7.50;99.90
55213;DHT22;41083;52.932;6.674;2023-04-07T02:47:19;7.40;99.90
55213;DHT22;41083;52.932;6.674;2023-04-07T02:49:44;7.40;99.90
55213;DHT22;41083;52.932;6.674;2023-04-07T02:52:11;7.40;99.90
55213;DHT22;41083;52.932;6.674;2023-04-07T02:54:36;7.40;99.90
55213;DHT22;41083;52.932;6.674;2023-04-07T02:57:02;7.40;99.90
55213;DHT22;41083;52.932;6.674;2023-04-07T02:59:28;7.40;99.90
55213;DHT22;41083;52.932;6.674;2023-04-07T03:01:53;7.40;99.90
55213;DHT22;41083;52.932;6.674;2023-04-07T03:04:20;7.40;99.90
55213;DHT22;41083;52.932;6.674;2023-04-07T03:06:45;7.50;99.90
55213;DHT22;41083;52.932;6.674;2023-04-07T03:09:11;7.40;99.90
55213;DHT22;41083;52.932;6.674;2023-04-07T03:11:37;7.50;99.90
55213;DHT22;41083;52.932;6.674;2023-04-07T03:14:02;7.50;99.90
55213;DHT22;41083;52.932;6.674;2023-04-07T03:16:28;7.50;99.90
55213;DHT22;41083;52.932;6.674;2023-04-07T03:18:53;7.50;99.90
55213;DHT22;41083;52.932;6.674;2023-04-07T03:21:19;7.50;99.90
55213;DHT22;41083;52.932;6.674;2023-04-07T03:23:45;7.50;99.90
55213;DHT22;41083;52.932;6.674;2023-04-07T03:26:10;7.50;99.90
55213;DHT22;41083;52.932;6.674;2023-04-07T03:28:36;7.50;99.90
55213;DHT22;41083;52.932;6.674;2023-04-07T03:31:02;7.50;99.90
55213;DHT22;41083;52.932;6.674;2023-04-07T03:33:27;7.50;99.90
55213;DHT22;41083;52.932;6.674;2023-04-07T03:35:53;7.50;99.90
55213;DHT22;41083;52.932;6.674;2023-04-07T03:38:19;7.50;99.90
55213;DHT22;41083;52.932;6.674;2023-04-07T03:40:45;7.50;99.90
55213;DHT22;41083;52.932;6.674;2023-04-07T03:43:11;7.50;99.90
55213;DHT22;41083;52.932;6.674;2023-04-07T03:45:40;7.40;99.90
55213;DHT22;41083;52.932;6.674;2023-04-07T03:48:06;7.40;99.90
55213;DHT22;41083;52.932;6.674;2023-04-07T03:50:35;7.50;99.90
55213;DHT22;41083;52.932;6.674;2023-04-07T03:53:00;7.40;99.90
55213;DHT22;41083;52.932;6.674;2023-04-07T03:55:26;7.50;99.90
55213;DHT22;41083;52.932;6.674;2023-04-07T03:57:51;7.40;99.90
55213;DHT22;41083;52.932;6.674;2023-04-07T04:00:17;7.40;99.90
55213;DHT22;41083;52.932;6.674;2023-04-07T04:02:43;7.40;99.90
55213;DHT22;41083;52.932;6.674;2023-04-07T04:05:09;7.40;99.90
55213;DHT22;41083;52.932;6.674;2023-04-07T04:07:35;7.40;99.90
55213;DHT22;41083;52.932;6.674;2023-04-07T04:10:00;7.40;99.90
55213;DHT22;41083;52.932;6.674;2023-04-07T04:12:26;7.40;99.90
55213;DHT22;41083;52.932;6.674;2023-04-07T04:14:51;7.40;99.90
55213;DHT22;41083;52.932;6.674;2023-04-07T04:17:17;7.40;99.90
55213;DHT22;41083;52.932;6.674;2023-04-07T04:19:43;7.40;99.90
55213;DHT22;41083;52.932;6.674;2023-04-07T04:22:08;7.40;99.90
55213;DHT22;41083;52.932;6.674;2023-04-07T04:24:34;7.40;99.90
55213;DHT22;41083;52.932;6.674;2023-04-07T04:27:00;7.40;99.90
55213;DHT22;41083;52.932;6.674;2023-04-07T04:29:26;7.40;99.90
55213;DHT22;41083;52.932;6.674;2023-04-07T04:31:52;7.40;99.90
55213;DHT22;41083;52.932;6.674;2023-04-07T04:34:17;7.40;99.90
55213;DHT22;41083;52.932;6.674;2023-04-07T04:36:43;7.40;99.90
55213;DHT22;41083;52.932;6.674;2023-04-07T04:39:09;7.30;99.90
55213;DHT22;41083;52.932;6.674;2023-04-07T04:41:34;7.40;99.90
55213;DHT22;41083;52.932;6.674;2023-04-07T04:44:00;7.30;99.90
55213;DHT22;41083;52.932;6.674;2023-04-07T04:46:26;7.40;99.90
55213;DHT22;41083;52.932;6.674;2023-04-07T04:48:51;7.40;99.90
55213;DHT22;41083;52.932;6.674;2023-04-07T04:51:18;7.30;99.90
55213;DHT22;41083;52.932;6.674;2023-04-07T04:53:44;7.40;99.90
55213;DHT22;41083;52.932;6.674;2023-04-07T04:56:09;7.30;99.90
55213;DHT22;41083;52.932;6.674;2023-04-07T04:58:36;7.40;99.90
55213;DHT22;41083;52.932;6.674;2023-04-07T05:01:02;7.30;99.90
55213;DHT22;41083;52.932;6.674;2023-04-07T05:03:27;7.30;99.90
55213;DHT22;41083;52.932;6.674;2023-04-07T05:05:53;7.30;99.90
55213;DHT22;41083;52.932;6.674;2023-04-07T05:08:19;7.30;99.90
55213;DHT22;41083;52.932;6.674;2023-04-07T05:10:45;7.30;99.90
55213;DHT22;41083;52.932;6.674;2023-04-07T05:13:11;7.30;99.90
55213;DHT22;41083;52.932;6.674;2023-04-07T05:15:37;7.40;99.90
55213;DHT22;41083;52.932;6.674;2023-04-07T05:18:02;7.30;99.90
55213;DHT22;41083;52.932;6.674;2023-04-07T05:20:28;7.30;99.90
55213;DHT22;41083;52.932;6.674;2023-04-07T05:22:54;7.40;99.90
55213;DHT22;41083;52.932;6.674;2023-04-07T05:25:20;7.30;99.90
55213;DHT22;41083;52.932;6.674;2023-04-07T05:27:45;7.30;99.90
55213;DHT22;41083;52.932;6.674;2023-04-07T05:30:11;7.30;99.90
55213;DHT22;41083;52.932;6.674;2023-04-07T05:32:37;7.30;99.90
55213;DHT22;41083;52.932;6.674;2023-04-07T05:35:03;7.30;99.90
55213;DHT22;41083;52.932;6.674;2023-04-07T05:37:28;7.30;99.90
55213;DHT22;41083;52.932;6.674;2023-04-07T05:39:54;7.30;99.90
55213;DHT22;41083;52.932;6.674;2023-04-07T05:42:19;7.30;99.90
55213;DHT22;41083;52.932;6.674;2023-04-07T05:44:45;7.30;99.90
55213;DHT22;41083;52.932;6.674;2023-04-07T05:47:11;7.30;99.90
55213;DHT22;41083;52.932;6.674;2023-04-07T05:49:36;7.30;99.90
55213;DHT22;41083;52.932;6.674;2023-04-07T05:52:02;7.30;99.90
55213;DHT22;41083;52.932;6.674;2023-04-07T05:54:28;7.30;99.90
55213;DHT22;41083;52.932;6.674;2023-04-07T05:56:54;7.40;99.90
55213;DHT22;41083;52.932;6.674;2023-04-07T05:59:20;7.30;99.90
55213;DHT22;41083;52.932;6.674;2023-04-07T06:01:46;7.30;99.90
55213;DHT22;41083;52.932;6.674;2023-04-07T06:04:11;7.40;99.90
55213;DHT22;41083;52.932;6.674;2023-04-07T06:06:37;7.40;99.90
55213;DHT22;41083;52.932;6.674;2023-04-07T06:09:03;7.30;99.90
55213;DHT22;41083;52.932;6.674;2023-04-07T06:11:28;7.40;99.90
55213;DHT22;41083;52.932;6.674;2023-04-07T06:13:54;7.30;99.90
55213;DHT22;41083;52.932;6.674;2023-04-07T06:16:19;7.40;99.90
55213;DHT22;41083;52.932;6.674;2023-04-07T06:18:45;7.40;99.90
55213;DHT22;41083;52.932;6.674;2023-04-07T06:21:11;7.40;99.90
55213;DHT22;41083;52.932;6.674;2023-04-07T06:23:37;7.40;99.90
55213;DHT22;41083;52.932;6.674;2023-04-07T06:26:02;7.40;99.90
55213;DHT22;41083;52.932;6.674;2023-04-07T06:28:28;7.40;99.90
55213;DHT22;41083;52.932;6.674;2023-04-07T06:30:53;7.40;99.90
55213;DHT22;41083;52.932;6.674;2023-04-07T06:33:19;7.40;99.90
55213;DHT22;41083;52.932;6.674;2023-04-07T06:35:50;7.40;99.90
55213;DHT22;41083;52.932;6.674;2023-04-07T06:38:15;7.50;99.90
55213;DHT22;41083;52.932;6.674;2023-04-07T06:40:41;7.40;99.90
55213;DHT22;41083;52.932;6.674;2023-04-07T06:43:06;7.40;99.90
55213;DHT22;41083;52.932;6.674;2023-04-07T06:45:32;7.50;99.90
55213;DHT22;41083;52.932;6.674;2023-04-07T06:47:58;7.40;99.90
55213;DHT22;41083;52.932;6.674;2023-04-07T06:50:23;7.50;99.90
55213;DHT22;41083;52.932;6.674;2023-04-07T06:52:49;7.50;99.90
55213;DHT22;41083;52.932;6.674;2023-04-07T06:55:14;7.50;99.90
55213;DHT22;41083;52.932;6.674;2023-04-07T06:57:40;7.50;99.90
55213;DHT22;41083;52.932;6.674;2023-04-07T07:00:06;7.50;99.90
55213;DHT22;41083;52.932;6.674;2023-04-07T07:02:33;7.50;99.90
55213;DHT22;41083;52.932;6.674;2023-04-07T07:05:00;7.60;99.90
55213;DHT22;41083;52.932;6.674;2023-04-07T07:07:25;7.60;99.90
55213;DHT22;41083;52.932;6.674;2023-04-07T07:09:52;7.60;99.90
55213;DHT22;41083;52.932;6.674;2023-04-07T07:12:18;7.60;99.90
55213;DHT22;41083;52.932;6.674;2023-04-07T07:14:43;7.60;99.90
55213;DHT22;41083;52.932;6.674;2023-04-07T07:17:09;7.70;99.90
55213;DHT22;41083;52.932;6.674;2023-04-07T07:19:34;7.60;99.90
55213;DHT22;41083;52.932;6.674;2023-04-07T07:22:00;7.70;99.90
55213;DHT22;41083;52.932;6.674;2023-04-07T07:24:28;7.70;99.90
55213;DHT22;41083;52.932;6.674;2023-04-07T07:26:54;7.70;99.90
55213;DHT22;41083;52.932;6.674;2023-04-07T07:29:21;7.70;99.90
55213;DHT22;41083;52.932;6.674;2023-04-07T07:31:47;7.80;99.90
55213;DHT22;41083;52.932;6.674;2023-04-07T07:34:13;7.80;99.90
55213;DHT22;41083;52.932;6.674;2023-04-07T07:36:38;7.80;99.90
55213;DHT22;41083;52.932;6.674;2023-04-07T07:39:04;7.80;99.90
55213;DHT22;41083;52.932;6.674;2023-04-07T07:41:30;7.80;99.90
55213;DHT22;41083;52.932;6.674;2023-04-07T07:43:56;7.80;99.90
55213;DHT22;41083;52.932;6.674;2023-04-07T07:46:21;7.80;99.90
55213;DHT22;41083;52.932;6.674;2023-04-07T07:48:49;7.90;99.90
55213;DHT22;41083;52.932;6.674;2023-04-07T07:51:14;7.90;99.90
55213;DHT22;41083;52.932;6.674;2023-04-07T07:53:40;7.90;99.90
55213;DHT22;41083;52.932;6.674;2023-04-07T07:56:06;7.90;99.90
55213;DHT22;41083;52.932;6.674;2023-04-07T07:58:31;7.90;99.90
55213;DHT22;41083;52.932;6.674;2023-04-07T08:00:57;7.90;99.90
55213;DHT22;41083;52.932;6.674;2023-04-07T08:03:22;8.00;99.90
55213;DHT22;41083;52.932;6.674;2023-04-07T08:05:48;8.00;99.90
55213;DHT22;41083;52.932;6.674;2023-04-07T08:08:14;8.10;99.90
55213;DHT22;41083;52.932;6.674;2023-04-07T08:10:40;8.00;99.90
55213;DHT22;41083;52.932;6.674;2023-04-07T08:13:06;8.00;99.90
55213;DHT22;41083;52.932;6.674;2023-04-07T08:15:31;8.00;99.90
55213;DHT22;41083;52.932;6.674;2023-04-07T08:17:57;8.10;99.90
55213;DHT22;41083;52.932;6.674;2023-04-07T08:20:25;8.20;99.90
55213;DHT22;41083;52.932;6.674;2023-04-07T08:22:51;8.10;99.90
55213;DHT22;41083;52.932;6.674;2023-04-07T08:25:16;8.10;99.90
55213;DHT22;41083;52.932;6.674;2023-04-07T08:27:42;8.10;99.90
55213;DHT22;41083;52.932;6.674;2023-04-07T08:30:08;8.20;99.90
55213;DHT22;41083;52.932;6.674;2023-04-07T08:32:39;8.20;99.90
55213;DHT22;41083;52.932;6.674;2023-04-07T08:35:05;8.20;99.90
55213;DHT22;41083;52.932;6.674;2023-04-07T08:37:31;8.20;99.90
55213;DHT22;41083;52.932;6.674;2023-04-07T08:39:57;8.20;99.90
55213;DHT22;41083;52.932;6.674;2023-04-07T08:42:26;8.20;99.90
55213;DHT22;41083;52.932;6.674;2023-04-07T08:45:05;8.30;99.90
55213;DHT22;41083;52.932;6.674;2023-04-07T08:47:32;8.30;99.90
55213;DHT22;41083;52.932;6.674;2023-04-07T08:50:07;8.40;99.90
55213;DHT22;41083;52.932;6.674;2023-04-07T08:52:50;8.30;99.90
55213;DHT22;41083;52.932;6.674;2023-04-07T08:55:17;8.40;99.90
55213;DHT22;41083;52.932;6.674;2023-04-07T08:57:43;8.40;99.90
55213;DHT22;41083;52.932;6.674;2023-04-07T09:00:11;8.40;99.90
55213;DHT22;41083;52.932;6.674;2023-04-07T09:02:39;8.40;99.90
55213;DHT22;41083;52.932;6.674;2023-04-07T09:05:07;8.50;99.90
55213;DHT22;41083;52.932;6.674;2023-04-07T09:07:34;8.50;99.90
55213;DHT22;41083;52.932;6.674;2023-04-07T09:10:00;8.50;99.90
55213;DHT22;41083;52.932;6.674;2023-04-07T09:12:27;8.60;99.90
55213;DHT22;41083;52.932;6.674;2023-04-07T09:14:53;8.60;99.90
55213;DHT22;41083;52.932;6.674;2023-04-07T09:17:19;8.70;99.90
55213;DHT22;41083;52.932;6.674;2023-04-07T09:19:46;8.70;99.90
55213;DHT22;41083;52.932;6.674;2023-04-07T09:22:11;8.70;99.90
55213;DHT22;41083;52.932;6.674;2023-04-07T09:24:39;8.80;99.90
55213;DHT22;41083;52.932;6.674;2023-04-07T09:27:13;8.80;99.90
55213;DHT22;41083;52.932;6.674;2023-04-07T09:29:41;8.80;99.90
55213;DHT22;41083;52.932;6.674;2023-04-07T09:32:08;8.80;99.90
55213;DHT22;41083;52.932;6.674;2023-04-07T09:34:35;8.80;99.90
55213;DHT22;41083;52.932;6.674;2023-04-07T09:37:01;8.80;99.90
55213;DHT22;41083;52.932;6.674;2023-04-07T09:39:28;8.90;99.90
55213;DHT22;41083;52.932;6.674;2023-04-07T09:41:54;8.90;99.90
55213;DHT22;41083;52.932;6.674;2023-04-07T09:44:21;8.90;99.90
55213;DHT22;41083;52.932;6.674;2023-04-07T09:49:15;9.10;99.90
55213;DHT22;41083;52.932;6.674;2023-04-07T09:54:38;9.20;99.90
55213;DHT22;41083;52.932;6.674;2023-04-07T09:57:08;9.20;99.90
55213;DHT22;41083;52.932;6.674;2023-04-07T09:59:37;9.30;99.90
55213;DHT22;41083;52.932;6.674;2023-04-07T10:02:03;9.30;99.90
55213;DHT22;41083;52.932;6.674;2023-04-07T10:04:29;9.40;99.90
55213;DHT22;41083;52.932;6.674;2023-04-07T10:06:56;9.50;99.90
55213;DHT22;41083;52.932;6.674;2023-04-07T10:09:23;9.50;99.90
55213;DHT22;41083;52.932;6.674;2023-04-07T10:11:51;9.50;99.90
55213;DHT22;41083;52.932;6.674;2023-04-07T10:14:18;9.60;99.90
55213;DHT22;41083;52.932;6.674;2023-04-07T10:16:46;9.60;99.90
55213;DHT22;41083;52.932;6.674;2023-04-07T10:19:12;9.70;99.90
55213;DHT22;41083;52.932;6.674;2023-04-07T10:21:40;9.70;99.90
55213;DHT22;41083;52.932;6.674;2023-04-07T10:26:59;9.60;99.90
55213;DHT22;41083;52.932;6.674;2023-04-07T10:29:29;9.60;99.90
55213;DHT22;41083;52.932;6.674;2023-04-07T10:31:55;9.50;99.90
55213;DHT22;41083;52.932;6.674;2023-04-07T10:37:15;9.40;99.90
55213;DHT22;41083;52.932;6.674;2023-04-07T10:39:46;9.30;99.90
55213;DHT22;41083;52.932;6.674;2023-04-07T10:45:06;9.20;99.90
55213;DHT22;41083;52.932;6.674;2023-04-07T10:47:33;9.20;99.90
55213;DHT22;41083;52.932;6.674;2023-04-07T10:50:18;9.20;99.90
55213;DHT22;41083;52.932;6.674;2023-04-07T10:52:46;9.20;99.90
55213;DHT22;41083;52.932;6.674;2023-04-07T10:55:33;9.20;99.90
55213;DHT22;41083;52.932;6.674;2023-04-07T11:03:41;9.20;99.90
55213;DHT22;41083;52.932;6.674;2023-04-07T11:06:16;9.30;99.90
55213;DHT22;41083;52.932;6.674;2023-04-07T11:08:43;9.30;99.90
55213;DHT22;41083;52.932;6.674;2023-04-07T11:11:11;9.40;99.90
55213;DHT22;41083;52.932;6.674;2023-04-07T11:13:46;9.40;99.90
55213;DHT22;41083;52.932;6.674;2023-04-07T11:16:13;9.40;99.90
55213;DHT22;41083;52.932;6.674;2023-04-07T11:18:39;9.40;99.90
55213;DHT22;41083;52.932;6.674;2023-04-07T11:21:06;9.40;99.90
55213;DHT22;41083;52.932;6.674;2023-04-07T11:23:39;9.40;99.90
55213;DHT22;41083;52.932;6.674;2023-04-07T11:26:06;9.40;99.90
55213;DHT22;41083;52.932;6.674;2023-04-07T11:28:32;9.40;99.90
55213;DHT22;41083;52.932;6.674;2023-04-07T11:30:59;9.40;99.90
55213;DHT22;41083;52.932;6.674;2023-04-07T11:33:26;9.30;99.90
55213;DHT22;41083;52.932;6.674;2023-04-07T11:35:56;9.30;99.90
55213;DHT22;41083;52.932;6.674;2023-04-07T11:38:34;9.40;99.90
55213;DHT22;41083;52.932;6.674;2023-04-07T11:41:12;9.40;99.90
55213;DHT22;41083;52.932;6.674;2023-04-07T11:43:38;9.40;99.90
55213;DHT22;41083;52.932;6.674;2023-04-07T11:46:24;9.40;99.90
55213;DHT22;41083;52.932;6.674;2023-04-07T11:48:50;9.40;99.90
55213;DHT22;41083;52.932;6.674;2023-04-07T11:51:20;9.50;99.90
55213;DHT22;41083;52.932;6.674;2023-04-07T11:53:47;9.60;99.90
55213;DHT22;41083;52.932;6.674;2023-04-07T11:56:18;9.70;99.90
55213;DHT22;41083;52.932;6.674;2023-04-07T11:58:48;9.80;99.90
55213;DHT22;41083;52.932;6.674;2023-04-07T12:01:14;9.90;99.90
55213;DHT22;41083;52.932;6.674;2023-04-07T12:03:54;9.90;99.90
55213;DHT22;41083;52.932;6.674;2023-04-07T12:06:29;10.00;99.90
55213;DHT22;41083;52.932;6.674;2023-04-07T12:08:57;10.10;99.90
55213;DHT22;41083;52.932;6.674;2023-04-07T12:11:23;10.10;99.90
55213;DHT22;41083;52.932;6.674;2023-04-07T12:13:49;10.10;99.90
55213;DHT22;41083;52.932;6.674;2023-04-07T12:16:16;10.10;99.90
55213;DHT22;41083;52.932;6.674;2023-04-07T12:18:42;10.10;99.90
55213;DHT22;41083;52.932;6.674;2023-04-07T12:21:08;10.10;99.90
55213;DHT22;41083;52.932;6.674;2023-04-07T12:23:33;10.10;99.90
55213;DHT22;41083;52.932;6.674;2023-04-07T12:25:59;10.10;99.90
55213;DHT22;41083;52.932;6.674;2023-04-07T12:28:25;10.20;99.90
55213;DHT22;41083;52.932;6.674;2023-04-07T12:30:51;10.20;99.90
55213;DHT22;41083;52.932;6.674;2023-04-07T12:33:18;10.20;99.90
55213;DHT22;41083;52.932;6.674;2023-04-07T12:35:43;10.20;99.90
55213;DHT22;41083;52.932;6.674;2023-04-07T12:38:09;10.20;99.90
55213;DHT22;41083;52.932;6.674;2023-04-07T12:40:34;10.30;99.90
55213;DHT22;41083;52.932;6.674;2023-04-07T12:43:01;10.30;99.90
55213;DHT22;41083;52.932;6.674;2023-04-07T12:45:26;10.40;99.90
55213;DHT22;41083;52.932;6.674;2023-04-07T12:47:54;10.50;99.90
55213;DHT22;41083;52.932;6.674;2023-04-07T12:50:20;10.60;99.90
55213;DHT22;41083;52.932;6.674;2023-04-07T12:52:46;10.70;99.90
55213;DHT22;41083;52.932;6.674;2023-04-07T12:55:13;10.80;99.90
55213;DHT22;41083;52.932;6.674;2023-04-07T12:57:38;10.90;99.90
55213;DHT22;41083;52.932;6.674;2023-04-07T13:00:05;11.00;99.90
55213;DHT22;41083;52.932;6.674;2023-04-07T13:02:30;11.10;99.90
55213;DHT22;41083;52.932;6.674;2023-04-07T13:04:56;11.20;99.90
55213;DHT22;41083;52.932;6.674;2023-04-07T13:07:22;11.20;99.90
55213;DHT22;41083;52.932;6.674;2023-04-07T13:09:48;11.20;99.90
55213;DHT22;41083;52.932;6.674;2023-04-07T13:12:13;11.20;99.90
55213;DHT22;41083;52.932;6.674;2023-04-07T13:14:41;11.20;99.90
55213;DHT22;41083;52.932;6.674;2023-04-07T13:17:07;11.20;99.90
55213;DHT22;41083;52.932;6.674;2023-04-07T13:19:33;11.10;99.90
55213;DHT22;41083;52.932;6.674;2023-04-07T13:21:59;11.20;99.90
55213;DHT22;41083;52.932;6.674;2023-04-07T13:24:25;11.20;99.90
55213;DHT22;41083;52.932;6.674;2023-04-07T13:26:51;11.20;99.90
55213;DHT22;41083;52.932;6.674;2023-04-07T13:29:17;11.20;99.90
55213;DHT22;41083;52.932;6.674;2023-04-07T13:31:46;11.20;99.90
55213;DHT22;41083;52.932;6.674;2023-04-07T13:34:13;11.20;99.90
55213;DHT22;41083;52.932;6.674;2023-04-07T13:36:39;11.10;99.90
55213;DHT22;41083;52.932;6.674;2023-04-07T13:39:06;11.30;99.90
55213;DHT22;41083;52.932;6.674;2023-04-07T13:41:31;11.30;99.90
55213;DHT22;41083;52.932;6.674;2023-04-07T13:43:57;11.30;99.90
55213;DHT22;41083;52.932;6.674;2023-04-07T13:46:23;11.30;99.90
55213;DHT22;41083;52.932;6.674;2023-04-07T13:48:49;11.30;99.90
55213;DHT22;41083;52.932;6.674;2023-04-07T13:51:15;11.30;99.90
55213;DHT22;41083;52.932;6.674;2023-04-07T13:53:41;11.30;99.90
55213;DHT22;41083;52.932;6.674;2023-04-07T13:56:07;11.40;99.90
55213;DHT22;41083;52.932;6.674;2023-04-07T13:58:34;11.30;99.90
55213;DHT22;41083;52.932;6.674;2023-04-07T14:01:00;11.40;99.90
55213;DHT22;41083;52.932;6.674;2023-04-07T14:03:26;11.40;99.90
55213;DHT22;41083;52.932;6.674;2023-04-07T14:05:52;11.40;99.90
55213;DHT22;41083;52.932;6.674;2023-04-07T14:08:19;11.40;99.90
55213;DHT22;41083;52.932;6.674;2023-04-07T14:10:48;11.40;99.90
55213;DHT22;41083;52.932;6.674;2023-04-07T14:13:14;11.40;99.90
55213;DHT22;41083;52.932;6.674;2023-04-07T14:15:40;11.40;99.90
55213;DHT22;41083;52.932;6.674;2023-04-07T14:18:06;11.40;99.90
55213;DHT22;41083;52.932;6.674;2023-04-07T14:20:32;11.40;99.90
55213;DHT22;41083;52.932;6.674;2023-04-07T14:22:58;11.40;99.90
55213;DHT22;41083;52.932;6.674;2023-04-07T14:25:23;11.40;99.90
55213;DHT22;41083;52.932;6.674;2023-04-07T14:27:50;11.40;99.90
55213;DHT22;41083;52.932;6.674;2023-04-07T14:30:16;11.40;99.90
55213;DHT22;41083;52.932;6.674;2023-04-07T14:32:42;11.40;99.90
55213;DHT22;41083;52.932;6.674;2023-04-07T14:35:08;11.50;99.90
55213;DHT22;41083;52.932;6.674;2023-04-07T14:37:33;11.50;99.90
55213;DHT22;41083;52.932;6.674;2023-04-07T14:40:01;11.50;99.90
55213;DHT22;41083;52.932;6.674;2023-04-07T14:42:27;11.60;99.90
55213;DHT22;41083;52.932;6.674;2023-04-07T14:44:54;11.60;99.90
55213;DHT22;41083;52.932;6.674;2023-04-07T14:47:20;11.60;99.90
55213;DHT22;41083;52.932;6.674;2023-04-07T14:49:46;11.60;99.90
55213;DHT22;41083;52.932;6.674;2023-04-07T14:52:11;11.60;99.90
55213;DHT22;41083;52.932;6.674;2023-04-07T14:54:38;11.60;99.90
55213;DHT22;41083;52.932;6.674;2023-04-07T14:57:04;11.60;99.90
55213;DHT22;41083;52.932;6.674;2023-04-07T14:59:30;11.50;99.90
55213;DHT22;41083;52.932;6.674;2023-04-07T15:01:55;11.50;99.90
55213;DHT22;41083;52.932;6.674;2023-04-07T15:04:21;11.50;99.90
55213;DHT22;41083;52.932;6.674;2023-04-07T15:06:47;11.40;99.90
55213;DHT22;41083;52.932;6.674;2023-04-07T15:09:12;11.40;99.90
55213;DHT22;41083;52.932;6.674;2023-04-07T15:11:38;11.40;99.90
55213;DHT22;41083;52.932;6.674;2023-04-07T15:14:11;11.40;99.90
55213;DHT22;41083;52.932;6.674;2023-04-07T15:16:37;11.40;99.90
55213;DHT22;41083;52.932;6.674;2023-04-07T15:19:02;11.30;99.90
55213;DHT22;41083;52.932;6.674;2023-04-07T15:21:28;11.30;99.90
55213;DHT22;41083;52.932;6.674;2023-04-07T15:23:54;11.30;99.90
55213;DHT22;41083;52.932;6.674;2023-04-07T15:26:19;11.40;99.90
55213;DHT22;41083;52.932;6.674;2023-04-07T15:28:45;11.40;99.90
55213;DHT22;41083;52.932;6.674;2023-04-07T15:31:11;11.30;99.90
55213;DHT22;41083;52.932;6.674;2023-04-07T15:33:38;11.40;99.90
55213;DHT22;41083;52.932;6.674;2023-04-07T15:36:05;11.30;99.90
55213;DHT22;41083;52.932;6.674;2023-04-07T15:38:31;11.40;99.90
55213;DHT22;41083;52.932;6.674;2023-04-07T15:40:57;11.40;99.90
55213;DHT22;41083;52.932;6.674;2023-04-07T15:43:23;11.40;99.90
55213;DHT22;41083;52.932;6.674;2023-04-07T15:45:48;11.40;99.90
55213;DHT22;41083;52.932;6.674;2023-04-07T15:48:14;11.50;99.90
55213;DHT22;41083;52.932;6.674;2023-04-07T15:50:40;11.40;99.90
55213;DHT22;41083;52.932;6.674;2023-04-07T15:53:06;11.40;99.90
55213;DHT22;41083;52.932;6.674;2023-04-07T15:55:33;11.50;99.90
55213;DHT22;41083;52.932;6.674;2023-04-07T15:57:59;11.60;99.90
55213;DHT22;41083;52.932;6.674;2023-04-07T16:00:26;11.60;99.90
55213;DHT22;41083;52.932;6.674;2023-04-07T16:02:53;11.60;99.90
55213;DHT22;41083;52.932;6.674;2023-04-07T16:05:19;11.60;99.90